sensor_id;sensor_type;location;lat;lon;timestamp;P1;durP1;ratioP1;P2;durP2;ratioP2
48006;SDS011;33771;48.180;11.400;2023-06-22T00:01:50;11.13;;;5.13;;
48006;SDS011;33771;48.180;11.400;2023-06-22T00:04:16;11.75;;;5.32;;
48006;SDS011;33771;48.180;11.400;2023-06-22T00:06:41;12.02;;;5.35;;
48006;SDS011;33771;48.180;11.400;2023-06-22T00:09:07;12.45;;;5.25;;
48006;SDS011;33771;48.180;11.400;2023-06-22T00:11:33;10.00;;;5.10;;
48006;SDS011;33771;48.180;11.400;2023-06-22T00:13:59;12.23;;;5.75;;
48006;SDS011;33771;48.180;11.400;2023-06-22T00:16:24;13.13;;;5.72;;
48006;SDS011;33771;48.180;11.400;2023-06-22T00:18:50;11.68;;;5.03;;
48006;SDS011;33771;48.180;11.400;2023-06-22T00:21:16;12.27;;;5.47;;
48006;SDS011;33771;48.180;11.400;2023-06-22T00:23:41;11.10;;;5.30;;
48006;SDS011;33771;48.180;11.400;2023-06-22T00:26:08;8.40;;;4.97;;
48006;SDS011;33771;48.180;11.400;2023-06-22T00:28:33;11.25;;;5.28;;
48006;SDS011;33771;48.180;11.400;2023-06-22T00:30:59;13.25;;;5.90;;
48006;SDS011;33771;48.180;11.400;2023-06-22T00:33:25;10.35;;;4.93;;
48006;SDS011;33771;48.180;11.400;2023-06-22T00:35:51;11.90;;;5.43;;
48006;SDS011;33771;48.180;11.400;2023-06-22T00:38:18;10.43;;;5.47;;
48006;SDS011;33771;48.180;11.400;2023-06-22T00:40:44;12.98;;;4.75;;
48006;SDS011;33771;48.180;11.400;2023-06-22T00:43:10;8.73;;;4.63;;
48006;SDS011;33771;48.180;11.400;2023-06-22T00:45:36;10.05;;;4.78;;
48006;SDS011;33771;48.180;11.400;2023-06-22T00:48:02;8.18;;;4.82;;
48006;SDS011;33771;48.180;11.400;2023-06-22T00:50:29;13.85;;;5.30;;
48006;SDS011;33771;48.180;11.400;2023-06-22T00:53:03;11.82;;;5.50;;
48006;SDS011;33771;48.180;11.400;2023-06-22T00:55:33;11.80;;;5.38;;
48006;SDS011;33771;48.180;11.400;2023-06-22T00:58:03;9.60;;;4.38;;
48006;SDS011;33771;48.180;11.400;2023-06-22T01:00:32;11.95;;;4.78;;
48006;SDS011;33771;48.180;11.400;2023-06-22T01:02:58;11.75;;;4.93;;
48006;SDS011;33771;48.180;11.400;2023-06-22T01:05:24;11.52;;;4.57;;
48006;SDS011;33771;48.180;11.400;2023-06-22T01:10:40;15.10;;;5.15;;
48006;SDS011;33771;48.180;11.400;2023-06-22T01:13:08;7.60;;;4.47;;
48006;SDS011;33771;48.180;11.400;2023-06-22T01:15:53;12.20;;;4.60;;
48006;SDS011;33771;48.180;11.400;2023-06-22T01:18:24;12.32;;;4.80;;
48006;SDS011;33771;48.180;11.400;2023-06-22T01:20:53;10.15;;;4.55;;
48006;SDS011;33771;48.180;11.400;2023-06-22T01:26:05;9.45;;;4.55;;
48006;SDS011;33771;48.180;11.400;2023-06-22T01:28:47;10.25;;;4.70;;
48006;SDS011;33771;48.180;11.400;2023-06-22T01:31:16;10.07;;;4.95;;
48006;SDS011;33771;48.180;11.400;2023-06-22T01:33:51;8.60;;;4.53;;
48006;SDS011;33771;48.180;11.400;2023-06-22T01:36:24;10.70;;;5.03;;
48006;SDS011;33771;48.180;11.400;2023-06-22T01:38:51;10.00;;;4.57;;
48006;SDS011;33771;48.180;11.400;2023-06-22T01:41:18;10.82;;;4.80;;
48006;SDS011;33771;48.180;11.400;2023-06-22T01:43:45;11.35;;;4.70;;
48006;SDS011;33771;48.180;11.400;2023-06-22T01:46:12;10.10;;;4.28;;
48006;SDS011;33771;48.180;11.400;2023-06-22T01:48:38;10.10;;;4.93;;
48006;SDS011;33771;48.180;11.400;2023-06-22T01:51:04;11.57;;;4.88;;
48006;SDS011;33771;48.180;11.400;2023-06-22T01:53:30;17.00;;;7.35;;
48006;SDS011;33771;48.180;11.400;2023-06-22T01:55:56;11.13;;;5.85;;
48006;SDS011;33771;48.180;11.400;2023-06-22T01:58:23;10.55;;;4.95;;
48006;SDS011;33771;48.180;11.400;2023-06-22T02:00:53;10.77;;;5.28;;
48006;SDS011;33771;48.180;11.400;2023-06-22T02:03:31;11.30;;;5.07;;
48006;SDS011;33771;48.180;11.400;2023-06-22T02:06:03;11.55;;;4.85;;
48006;SDS011;33771;48.180;11.400;2023-06-22T02:08:33;12.27;;;5.38;;
48006;SDS011;33771;48.180;11.400;2023-06-22T02:11:06;12.25;;;5.20;;
48006;SDS011;33771;48.180;11.400;2023-06-22T02:13:34;13.07;;;5.45;;
48006;SDS011;33771;48.180;11.400;2023-06-22T02:16:01;9.77;;;4.80;;
48006;SDS011;33771;48.180;11.400;2023-06-22T02:18:27;10.43;;;5.13;;
48006;SDS011;33771;48.180;11.400;2023-06-22T02:20:53;10.13;;;4.35;;
48006;SDS011;33771;48.180;11.400;2023-06-22T02:23:18;11.27;;;4.82;;
48006;SDS011;33771;48.180;11.400;2023-06-22T02:25:45;10.85;;;5.25;;
48006;SDS011;33771;48.180;11.400;2023-06-22T02:28:10;9.88;;;5.15;;
48006;SDS011;33771;48.180;11.400;2023-06-22T02:30:36;9.30;;;4.97;;
48006;SDS011;33771;48.180;11.400;2023-06-22T02:33:02;9.55;;;5.38;;
48006;SDS011;33771;48.180;11.400;2023-06-22T02:35:28;9.02;;;5.30;;
48006;SDS011;33771;48.180;11.400;2023-06-22T02:37:58;12.15;;;5.60;;
48006;SDS011;33771;48.180;11.400;2023-06-22T02:40:24;10.63;;;5.30;;
48006;SDS011;33771;48.180;11.400;2023-06-22T02:42:50;9.35;;;5.30;;
48006;SDS011;33771;48.180;11.400;2023-06-22T02:45:15;9.27;;;6.03;;
48006;SDS011;33771;48.180;11.400;2023-06-22T02:47:41;8.52;;;5.70;;
48006;SDS011;33771;48.180;11.400;2023-06-22T02:50:06;12.13;;;6.10;;
48006;SDS011;33771;48.180;11.400;2023-06-22T02:52:32;12.35;;;6.50;;
48006;SDS011;33771;48.180;11.400;2023-06-22T02:54:58;9.63;;;6.22;;
48006;SDS011;33771;48.180;11.400;2023-06-22T02:57:24;13.73;;;6.03;;
48006;SDS011;33771;48.180;11.400;2023-06-22T02:59:50;10.35;;;6.05;;
48006;SDS011;33771;48.180;11.400;2023-06-22T03:02:15;12.90;;;6.32;;
48006;SDS011;33771;48.180;11.400;2023-06-22T03:04:41;15.00;;;6.93;;
48006;SDS011;33771;48.180;11.400;2023-06-22T03:07:07;9.73;;;6.40;;
48006;SDS011;33771;48.180;11.400;2023-06-22T03:09:33;12.80;;;6.25;;
48006;SDS011;33771;48.180;11.400;2023-06-22T03:11:58;12.40;;;6.18;;
48006;SDS011;33771;48.180;11.400;2023-06-22T03:14:24;10.25;;;6.32;;
48006;SDS011;33771;48.180;11.400;2023-06-22T03:16:49;10.35;;;6.18;;
48006;SDS011;33771;48.180;11.400;2023-06-22T03:19:15;9.55;;;6.00;;
48006;SDS011;33771;48.180;11.400;2023-06-22T03:21:41;13.05;;;7.18;;
48006;SDS011;33771;48.180;11.400;2023-06-22T03:24:07;13.25;;;7.50;;
48006;SDS011;33771;48.180;11.400;2023-06-22T03:26:33;12.80;;;7.10;;
48006;SDS011;33771;48.180;11.400;2023-06-22T03:28:59;12.45;;;7.03;;
48006;SDS011;33771;48.180;11.400;2023-06-22T03:31:25;15.65;;;7.28;;
48006;SDS011;33771;48.180;11.400;2023-06-22T03:33:50;13.55;;;6.57;;
48006;SDS011;33771;48.180;11.400;2023-06-22T03:36:16;10.30;;;5.70;;
48006;SDS011;33771;48.180;11.400;2023-06-22T03:38:48;12.07;;;6.05;;
48006;SDS011;33771;48.180;11.400;2023-06-22T03:41:14;12.57;;;6.70;;
48006;SDS011;33771;48.180;11.400;2023-06-22T03:43:40;9.75;;;6.32;;
48006;SDS011;33771;48.180;11.400;2023-06-22T03:46:06;11.95;;;6.95;;
48006;SDS011;33771;48.180;11.400;2023-06-22T03:48:32;12.13;;;7.00;;
48006;SDS011;33771;48.180;11.400;2023-06-22T03:50:59;13.38;;;7.03;;
48006;SDS011;33771;48.180;11.400;2023-06-22T03:53:25;13.98;;;7.15;;
48006;SDS011;33771;48.180;11.400;2023-06-22T03:55:51;10.60;;;6.80;;
48006;SDS011;33771;48.180;11.400;2023-06-22T03:58:17;14.02;;;6.90;;
48006;SDS011;33771;48.180;11.400;2023-06-22T04:00:47;12.57;;;7.07;;
48006;SDS011;33771;48.180;11.400;2023-06-22T04:03:13;15.95;;;7.25;;
48006;SDS011;33771;48.180;11.400;2023-06-22T04:05:40;13.27;;;7.03;;
48006;SDS011;33771;48.180;11.400;2023-06-22T04:08:06;13.18;;;6.72;;
48006;SDS011;33771;48.180;11.400;2023-06-22T04:10:32;15.05;;;7.25;;
48006;SDS011;33771;48.180;11.400;2023-06-22T04:12:57;12.07;;;6.90;;
48006;SDS011;33771;48.180;11.400;2023-06-22T04:15:23;13.60;;;7.10;;
48006;SDS011;33771;48.180;11.400;2023-06-22T04:17:48;16.08;;;6.80;;
48006;SDS011;33771;48.180;11.400;2023-06-22T04:20:14;13.63;;;7.22;;
48006;SDS011;33771;48.180;11.400;2023-06-22T04:22:39;11.27;;;6.85;;
48006;SDS011;33771;48.180;11.400;2023-06-22T04:25:05;13.63;;;7.35;;
48006;SDS011;33771;48.180;11.400;2023-06-22T04:27:34;14.52;;;7.40;;
48006;SDS011;33771;48.180;11.400;2023-06-22T04:30:06;17.08;;;7.28;;
48006;SDS011;33771;48.180;11.400;2023-06-22T04:32:33;13.98;;;7.32;;
48006;SDS011;33771;48.180;11.400;2023-06-22T04:35:01;12.23;;;7.78;;
48006;SDS011;33771;48.180;11.400;2023-06-22T04:37:29;16.88;;;7.50;;
48006;SDS011;33771;48.180;11.400;2023-06-22T04:39:55;15.18;;;7.95;;
48006;SDS011;33771;48.180;11.400;2023-06-22T04:42:20;16.23;;;6.55;;
48006;SDS011;33771;48.180;11.400;2023-06-22T04:44:46;17.48;;;6.65;;
48006;SDS011;33771;48.180;11.400;2023-06-22T04:47:11;17.48;;;8.65;;
48006;SDS011;33771;48.180;11.400;2023-06-22T04:49:37;12.95;;;7.75;;
48006;SDS011;33771;48.180;11.400;2023-06-22T04:52:03;13.27;;;7.25;;
48006;SDS011;33771;48.180;11.400;2023-06-22T04:54:30;12.50;;;7.25;;
48006;SDS011;33771;48.180;11.400;2023-06-22T04:56:59;15.23;;;7.22;;
48006;SDS011;33771;48.180;11.400;2023-06-22T04:59:26;16.98;;;7.00;;
48006;SDS011;33771;48.180;11.400;2023-06-22T05:01:59;18.83;;;7.03;;
48006;SDS011;33771;48.180;11.400;2023-06-22T05:04:25;11.63;;;6.85;;
48006;SDS011;33771;48.180;11.400;2023-06-22T05:06:53;13.80;;;6.25;;
48006;SDS011;33771;48.180;11.400;2023-06-22T05:09:19;13.90;;;6.80;;
48006;SDS011;33771;48.180;11.400;2023-06-22T05:11:46;15.02;;;7.47;;
48006;SDS011;33771;48.180;11.400;2023-06-22T05:14:12;12.43;;;6.63;;
48006;SDS011;33771;48.180;11.400;2023-06-22T05:16:37;14.15;;;6.25;;
48006;SDS011;33771;48.180;11.400;2023-06-22T05:19:04;17.73;;;6.78;;
48006;SDS011;33771;48.180;11.400;2023-06-22T05:21:30;20.55;;;7.55;;
48006;SDS011;33771;48.180;11.400;2023-06-22T05:23:56;16.42;;;7.82;;
48006;SDS011;33771;48.180;11.400;2023-06-22T05:26:25;13.77;;;7.05;;
48006;SDS011;33771;48.180;11.400;2023-06-22T05:28:51;12.95;;;6.63;;
48006;SDS011;33771;48.180;11.400;2023-06-22T05:31:17;19.92;;;7.90;;
48006;SDS011;33771;48.180;11.400;2023-06-22T05:33:44;17.48;;;7.40;;
48006;SDS011;33771;48.180;11.400;2023-06-22T05:36:10;21.42;;;7.80;;
48006;SDS011;33771;48.180;11.400;2023-06-22T05:38:36;17.13;;;6.75;;
48006;SDS011;33771;48.180;11.400;2023-06-22T05:41:02;19.15;;;8.02;;
48006;SDS011;33771;48.180;11.400;2023-06-22T05:43:27;14.00;;;7.60;;
48006;SDS011;33771;48.180;11.400;2023-06-22T05:45:53;18.15;;;7.88;;
48006;SDS011;33771;48.180;11.400;2023-06-22T05:48:18;26.23;;;8.88;;
48006;SDS011;33771;48.180;11.400;2023-06-22T05:50:44;18.10;;;7.60;;
48006;SDS011;33771;48.180;11.400;2023-06-22T05:53:10;18.88;;;7.25;;
48006;SDS011;33771;48.180;11.400;2023-06-22T05:55:35;23.48;;;7.47;;
48006;SDS011;33771;48.180;11.400;2023-06-22T05:58:01;16.40;;;6.97;;
48006;SDS011;33771;48.180;11.400;2023-06-22T06:00:28;20.23;;;7.25;;
48006;SDS011;33771;48.180;11.400;2023-06-22T06:02:54;22.02;;;7.43;;
48006;SDS011;33771;48.180;11.400;2023-06-22T06:05:19;18.08;;;7.15;;
48006;SDS011;33771;48.180;11.400;2023-06-22T06:07:45;15.23;;;6.80;;
48006;SDS011;33771;48.180;11.400;2023-06-22T06:10:11;18.33;;;7.45;;
48006;SDS011;33771;48.180;11.400;2023-06-22T06:12:37;16.05;;;7.63;;
48006;SDS011;33771;48.180;11.400;2023-06-22T06:15:03;15.70;;;6.75;;
48006;SDS011;33771;48.180;11.400;2023-06-22T06:17:29;11.52;;;7.20;;
48006;SDS011;33771;48.180;11.400;2023-06-22T06:19:55;15.70;;;7.07;;
48006;SDS011;33771;48.180;11.400;2023-06-22T06:22:21;20.60;;;8.45;;
48006;SDS011;33771;48.180;11.400;2023-06-22T06:24:48;16.33;;;7.85;;
48006;SDS011;33771;48.180;11.400;2023-06-22T06:27:14;18.50;;;7.63;;
48006;SDS011;33771;48.180;11.400;2023-06-22T06:29:40;18.67;;;7.80;;
48006;SDS011;33771;48.180;11.400;2023-06-22T06:32:06;14.85;;;6.80;;
48006;SDS011;33771;48.180;11.400;2023-06-22T06:34:32;13.88;;;7.95;;
48006;SDS011;33771;48.180;11.400;2023-06-22T06:36:57;19.15;;;7.57;;
48006;SDS011;33771;48.180;11.400;2023-06-22T06:39:23;17.73;;;7.78;;
48006;SDS011;33771;48.180;11.400;2023-06-22T06:41:49;21.98;;;7.38;;
48006;SDS011;33771;48.180;11.400;2023-06-22T06:44:14;14.82;;;7.75;;
48006;SDS011;33771;48.180;11.400;2023-06-22T06:46:40;16.15;;;7.53;;
48006;SDS011;33771;48.180;11.400;2023-06-22T06:49:07;17.23;;;7.20;;
48006;SDS011;33771;48.180;11.400;2023-06-22T06:51:32;16.10;;;7.40;;
48006;SDS011;33771;48.180;11.400;2023-06-22T06:53:58;16.15;;;7.90;;
48006;SDS011;33771;48.180;11.400;2023-06-22T06:56:23;16.65;;;7.13;;
48006;SDS011;33771;48.180;11.400;2023-06-22T06:58:49;16.85;;;7.13;;
48006;SDS011;33771;48.180;11.400;2023-06-22T07:01:16;16.05;;;7.78;;
48006;SDS011;33771;48.180;11.400;2023-06-22T07:03:41;14.73;;;7.15;;
48006;SDS011;33771;48.180;11.400;2023-06-22T07:06:08;22.58;;;7.63;;
48006;SDS011;33771;48.180;11.400;2023-06-22T07:08:33;13.43;;;7.82;;
48006;SDS011;33771;48.180;11.400;2023-06-22T07:11:01;15.50;;;7.40;;
48006;SDS011;33771;48.180;11.400;2023-06-22T07:13:26;16.48;;;6.55;;
48006;SDS011;33771;48.180;11.400;2023-06-22T07:15:52;13.35;;;6.75;;
48006;SDS011;33771;48.180;11.400;2023-06-22T07:18:18;14.38;;;6.68;;
48006;SDS011;33771;48.180;11.400;2023-06-22T07:20:43;16.45;;;6.97;;
48006;SDS011;33771;48.180;11.400;2023-06-22T07:23:09;19.02;;;7.50;;
48006;SDS011;33771;48.180;11.400;2023-06-22T07:25:34;19.13;;;7.88;;
48006;SDS011;33771;48.180;11.400;2023-06-22T07:28:03;20.02;;;7.97;;
48006;SDS011;33771;48.180;11.400;2023-06-22T07:30:30;16.20;;;6.75;;
48006;SDS011;33771;48.180;11.400;2023-06-22T07:32:57;16.95;;;7.43;;
48006;SDS011;33771;48.180;11.400;2023-06-22T07:35:23;16.35;;;7.28;;
48006;SDS011;33771;48.180;11.400;2023-06-22T07:37:49;14.98;;;7.00;;
48006;SDS011;33771;48.180;11.400;2023-06-22T07:40:15;20.88;;;7.82;;
48006;SDS011;33771;48.180;11.400;2023-06-22T07:42:40;17.85;;;7.32;;
48006;SDS011;33771;48.180;11.400;2023-06-22T07:45:07;19.00;;;7.97;;
48006;SDS011;33771;48.180;11.400;2023-06-22T07:47:33;17.02;;;7.22;;
48006;SDS011;33771;48.180;11.400;2023-06-22T07:50:00;22.10;;;8.23;;
48006;SDS011;33771;48.180;11.400;2023-06-22T07:52:29;18.65;;;7.03;;
48006;SDS011;33771;48.180;11.400;2023-06-22T07:54:55;16.10;;;6.90;;
48006;SDS011;33771;48.180;11.400;2023-06-22T07:57:21;19.42;;;7.18;;
48006;SDS011;33771;48.180;11.400;2023-06-22T07:59:47;23.30;;;7.32;;
48006;SDS011;33771;48.180;11.400;2023-06-22T08:02:12;15.93;;;7.53;;
48006;SDS011;33771;48.180;11.400;2023-06-22T08:04:38;18.52;;;7.70;;
48006;SDS011;33771;48.180;11.400;2023-06-22T08:07:04;17.08;;;6.82;;
48006;SDS011;33771;48.180;11.400;2023-06-22T08:09:30;12.65;;;6.72;;
48006;SDS011;33771;48.180;11.400;2023-06-22T08:11:57;14.48;;;7.07;;
48006;SDS011;33771;48.180;11.400;2023-06-22T08:14:23;16.17;;;6.30;;
48006;SDS011;33771;48.180;11.400;2023-06-22T08:16:52;16.23;;;7.30;;
48006;SDS011;33771;48.180;11.400;2023-06-22T08:19:18;18.90;;;6.95;;
48006;SDS011;33771;48.180;11.400;2023-06-22T08:21:43;20.38;;;7.35;;
48006;SDS011;33771;48.180;11.400;2023-06-22T08:24:09;15.93;;;6.78;;
48006;SDS011;33771;48.180;11.400;2023-06-22T08:26:35;14.23;;;7.07;;
48006;SDS011;33771;48.180;11.400;2023-06-22T08:29:02;19.35;;;7.35;;
48006;SDS011;33771;48.180;11.400;2023-06-22T08:31:29;16.63;;;7.43;;
48006;SDS011;33771;48.180;11.400;2023-06-22T08:33:55;15.40;;;6.65;;
48006;SDS011;33771;48.180;11.400;2023-06-22T08:36:21;17.58;;;6.97;;
48006;SDS011;33771;48.180;11.400;2023-06-22T08:38:46;19.15;;;7.43;;
48006;SDS011;33771;48.180;11.400;2023-06-22T08:41:16;20.33;;;7.68;;
48006;SDS011;33771;48.180;11.400;2023-06-22T08:43:42;19.45;;;7.45;;
48006;SDS011;33771;48.180;11.400;2023-06-22T08:46:09;17.27;;;7.40;;
48006;SDS011;33771;48.180;11.400;2023-06-22T08:48:35;17.73;;;7.95;;
48006;SDS011;33771;48.180;11.400;2023-06-22T08:51:01;14.95;;;7.50;;
48006;SDS011;33771;48.180;11.400;2023-06-22T08:53:27;21.20;;;7.13;;
48006;SDS011;33771;48.180;11.400;2023-06-22T08:55:52;18.27;;;7.25;;
48006;SDS011;33771;48.180;11.400;2023-06-22T08:58:18;15.75;;;6.75;;
48006;SDS011;33771;48.180;11.400;2023-06-22T09:00:45;19.67;;;6.97;;
48006;SDS011;33771;48.180;11.400;2023-06-22T09:03:10;16.88;;;6.68;;
48006;SDS011;33771;48.180;11.400;2023-06-22T09:05:36;23.83;;;7.60;;
48006;SDS011;33771;48.180;11.400;2023-06-22T09:08:02;17.02;;;6.82;;
48006;SDS011;33771;48.180;11.400;2023-06-22T09:10:28;18.45;;;7.20;;
48006;SDS011;33771;48.180;11.400;2023-06-22T09:12:53;17.00;;;7.28;;
48006;SDS011;33771;48.180;11.400;2023-06-22T09:15:19;21.35;;;7.07;;
48006;SDS011;33771;48.180;11.400;2023-06-22T09:17:45;16.70;;;7.15;;
48006;SDS011;33771;48.180;11.400;2023-06-22T09:20:11;19.70;;;7.63;;
48006;SDS011;33771;48.180;11.400;2023-06-22T09:22:37;15.60;;;6.93;;
48006;SDS011;33771;48.180;11.400;2023-06-22T09:25:02;21.30;;;7.22;;
48006;SDS011;33771;48.180;11.400;2023-06-22T09:27:28;23.75;;;7.97;;
48006;SDS011;33771;48.180;11.400;2023-06-22T09:29:54;18.88;;;7.15;;
48006;SDS011;33771;48.180;11.400;2023-06-22T09:32:19;20.45;;;7.05;;
48006;SDS011;33771;48.180;11.400;2023-06-22T09:34:45;16.27;;;6.50;;
48006;SDS011;33771;48.180;11.400;2023-06-22T09:37:11;17.98;;;7.05;;
48006;SDS011;33771;48.180;11.400;2023-06-22T09:39:37;22.15;;;8.30;;
48006;SDS011;33771;48.180;11.400;2023-06-22T09:42:03;15.23;;;6.43;;
48006;SDS011;33771;48.180;11.400;2023-06-22T09:44:30;17.60;;;7.38;;
48006;SDS011;33771;48.180;11.400;2023-06-22T09:46:57;16.40;;;6.40;;
48006;SDS011;33771;48.180;11.400;2023-06-22T09:49:22;21.00;;;7.22;;
48006;SDS011;33771;48.180;11.400;2023-06-22T09:51:48;16.95;;;7.07;;
48006;SDS011;33771;48.180;11.400;2023-06-22T09:54:14;17.98;;;6.57;;
48006;SDS011;33771;48.180;11.400;2023-06-22T09:56:40;18.25;;;6.75;;
48006;SDS011;33771;48.180;11.400;2023-06-22T09:59:05;17.60;;;6.20;;
48006;SDS011;33771;48.180;11.400;2023-06-22T10:01:31;19.70;;;6.97;;
48006;SDS011;33771;48.180;11.400;2023-06-22T10:03:56;18.08;;;6.53;;
48006;SDS011;33771;48.180;11.400;2023-06-22T10:06:23;19.63;;;6.85;;
48006;SDS011;33771;48.180;11.400;2023-06-22T10:08:50;20.58;;;7.00;;
48006;SDS011;33771;48.180;11.400;2023-06-22T10:11:16;17.40;;;6.63;;
48006;SDS011;33771;48.180;11.400;2023-06-22T10:13:42;20.83;;;6.75;;
48006;SDS011;33771;48.180;11.400;2023-06-22T10:16:07;16.65;;;6.03;;
48006;SDS011;33771;48.180;11.400;2023-06-22T10:18:33;22.10;;;5.95;;
48006;SDS011;33771;48.180;11.400;2023-06-22T10:20:59;15.15;;;5.65;;
48006;SDS011;33771;48.180;11.400;2023-06-22T10:23:24;22.35;;;6.72;;
48006;SDS011;33771;48.180;11.400;2023-06-22T10:25:50;16.35;;;6.10;;
48006;SDS011;33771;48.180;11.400;2023-06-22T10:28:16;20.85;;;5.95;;
48006;SDS011;33771;48.180;11.400;2023-06-22T10:30:41;17.73;;;6.72;;
48006;SDS011;33771;48.180;11.400;2023-06-22T10:33:08;19.92;;;6.13;;
48006;SDS011;33771;48.180;11.400;2023-06-22T10:35:34;16.27;;;6.13;;
48006;SDS011;33771;48.180;11.400;2023-06-22T10:38:00;21.52;;;6.45;;
48006;SDS011;33771;48.180;11.400;2023-06-22T10:40:25;15.80;;;5.72;;
48006;SDS011;33771;48.180;11.400;2023-06-22T10:42:51;18.63;;;6.90;;
48006;SDS011;33771;48.180;11.400;2023-06-22T10:45:16;15.00;;;5.95;;
48006;SDS011;33771;48.180;11.400;2023-06-22T10:47:42;17.13;;;6.22;;
48006;SDS011;33771;48.180;11.400;2023-06-22T10:50:08;20.85;;;5.82;;
48006;SDS011;33771;48.180;11.400;2023-06-22T10:52:33;15.25;;;6.18;;
48006;SDS011;33771;48.180;11.400;2023-06-22T10:54:59;18.65;;;6.38;;
48006;SDS011;33771;48.180;11.400;2023-06-22T10:57:25;20.60;;;6.50;;
48006;SDS011;33771;48.180;11.400;2023-06-22T10:59:50;14.88;;;5.95;;
48006;SDS011;33771;48.180;11.400;2023-06-22T11:02:16;17.98;;;5.97;;
48006;SDS011;33771;48.180;11.400;2023-06-22T11:04:42;21.27;;;6.82;;
48006;SDS011;33771;48.180;11.400;2023-06-22T11:07:07;18.13;;;6.55;;
48006;SDS011;33771;48.180;11.400;2023-06-22T11:09:33;19.10;;;6.40;;
48006;SDS011;33771;48.180;11.400;2023-06-22T11:11:59;20.05;;;6.70;;
48006;SDS011;33771;48.180;11.400;2023-06-22T11:14:25;23.38;;;6.45;;
48006;SDS011;33771;48.180;11.400;2023-06-22T11:16:50;17.98;;;5.47;;
48006;SDS011;33771;48.180;11.400;2023-06-22T11:19:16;22.73;;;6.93;;
48006;SDS011;33771;48.180;11.400;2023-06-22T11:21:43;19.60;;;7.05;;
48006;SDS011;33771;48.180;11.400;2023-06-22T11:24:08;20.65;;;6.05;;
48006;SDS011;33771;48.180;11.400;2023-06-22T11:26:34;17.90;;;6.10;;
48006;SDS011;33771;48.180;11.400;2023-06-22T11:29:00;26.48;;;6.88;;
48006;SDS011;33771;48.180;11.400;2023-06-22T11:31:25;22.58;;;6.72;;
48006;SDS011;33771;48.180;11.400;2023-06-22T11:33:51;19.40;;;6.43;;
48006;SDS011;33771;48.180;11.400;2023-06-22T11:36:17;20.90;;;6.00;;
48006;SDS011;33771;48.180;11.400;2023-06-22T11:38:42;20.50;;;6.57;;
48006;SDS011;33771;48.180;11.400;2023-06-22T11:41:09;17.90;;;6.32;;
48006;SDS011;33771;48.180;11.400;2023-06-22T11:43:35;24.48;;;6.68;;
48006;SDS011;33771;48.180;11.400;2023-06-22T11:46:02;15.73;;;6.40;;
48006;SDS011;33771;48.180;11.400;2023-06-22T11:48:29;17.20;;;6.45;;
48006;SDS011;33771;48.180;11.400;2023-06-22T11:50:54;18.77;;;6.45;;
48006;SDS011;33771;48.180;11.400;2023-06-22T11:53:20;18.20;;;6.15;;
48006;SDS011;33771;48.180;11.400;2023-06-22T11:55:46;24.15;;;6.50;;
48006;SDS011;33771;48.180;11.400;2023-06-22T11:58:12;19.55;;;6.85;;
48006;SDS011;33771;48.180;11.400;2023-06-22T12:00:38;17.80;;;6.28;;
48006;SDS011;33771;48.180;11.400;2023-06-22T12:03:03;12.35;;;6.03;;
48006;SDS011;33771;48.180;11.400;2023-06-22T12:05:29;23.48;;;6.85;;
48006;SDS011;33771;48.180;11.400;2023-06-22T12:07:55;15.88;;;5.97;;
48006;SDS011;33771;48.180;11.400;2023-06-22T12:10:21;20.55;;;7.07;;
48006;SDS011;33771;48.180;11.400;2023-06-22T12:12:47;14.93;;;6.28;;
48006;SDS011;33771;48.180;11.400;2023-06-22T12:15:12;19.38;;;6.13;;
48006;SDS011;33771;48.180;11.400;2023-06-22T12:17:38;21.25;;;6.93;;
48006;SDS011;33771;48.180;11.400;2023-06-22T12:20:04;15.20;;;6.22;;
48006;SDS011;33771;48.180;11.400;2023-06-22T12:22:31;22.33;;;6.20;;
48006;SDS011;33771;48.180;11.400;2023-06-22T12:24:57;19.30;;;6.25;;
48006;SDS011;33771;48.180;11.400;2023-06-22T12:27:22;20.23;;;6.40;;
48006;SDS011;33771;48.180;11.400;2023-06-22T12:29:48;15.30;;;5.90;;
48006;SDS011;33771;48.180;11.400;2023-06-22T12:32:14;17.73;;;6.75;;
48006;SDS011;33771;48.180;11.400;2023-06-22T12:34:41;19.38;;;6.18;;
48006;SDS011;33771;48.180;11.400;2023-06-22T12:37:07;19.85;;;5.53;;
48006;SDS011;33771;48.180;11.400;2023-06-22T12:39:33;18.40;;;6.32;;
48006;SDS011;33771;48.180;11.400;2023-06-22T12:41:59;21.30;;;5.95;;
48006;SDS011;33771;48.180;11.400;2023-06-22T12:44:25;13.98;;;6.10;;
48006;SDS011;33771;48.180;11.400;2023-06-22T12:46:50;12.93;;;5.88;;
48006;SDS011;33771;48.180;11.400;2023-06-22T12:49:16;16.73;;;6.00;;
48006;SDS011;33771;48.180;11.400;2023-06-22T12:51:43;15.20;;;6.35;;
48006;SDS011;33771;48.180;11.400;2023-06-22T12:54:09;20.77;;;6.47;;
48006;SDS011;33771;48.180;11.400;2023-06-22T12:56:35;18.63;;;6.47;;
48006;SDS011;33771;48.180;11.400;2023-06-22T12:59:01;20.35;;;6.18;;
48006;SDS011;33771;48.180;11.400;2023-06-22T13:01:27;18.15;;;6.38;;
48006;SDS011;33771;48.180;11.400;2023-06-22T13:03:53;15.10;;;5.75;;
48006;SDS011;33771;48.180;11.400;2023-06-22T13:06:19;14.77;;;6.13;;
48006;SDS011;33771;48.180;11.400;2023-06-22T13:08:45;19.60;;;5.72;;
48006;SDS011;33771;48.180;11.400;2023-06-22T13:11:10;13.45;;;5.95;;
48006;SDS011;33771;48.180;11.400;2023-06-22T13:13:36;15.57;;;5.80;;
48006;SDS011;33771;48.180;11.400;2023-06-22T13:16:01;23.92;;;5.72;;
48006;SDS011;33771;48.180;11.400;2023-06-22T13:18:27;15.48;;;5.65;;
48006;SDS011;33771;48.180;11.400;2023-06-22T13:20:52;17.08;;;6.40;;
48006;SDS011;33771;48.180;11.400;2023-06-22T13:23:19;17.38;;;5.78;;
48006;SDS011;33771;48.180;11.400;2023-06-22T13:25:46;16.80;;;5.15;;
48006;SDS011;33771;48.180;11.400;2023-06-22T13:28:11;28.88;;;6.40;;
48006;SDS011;33771;48.180;11.400;2023-06-22T13:30:38;16.48;;;5.28;;
48006;SDS011;33771;48.180;11.400;2023-06-22T13:33:05;15.75;;;5.50;;
48006;SDS011;33771;48.180;11.400;2023-06-22T13:35:30;18.27;;;5.53;;
48006;SDS011;33771;48.180;11.400;2023-06-22T13:37:56;16.55;;;5.43;;
48006;SDS011;33771;48.180;11.400;2023-06-22T13:40:21;18.33;;;5.70;;
48006;SDS011;33771;48.180;11.400;2023-06-22T13:42:47;12.45;;;5.25;;
48006;SDS011;33771;48.180;11.400;2023-06-22T13:45:13;18.50;;;5.20;;
48006;SDS011;33771;48.180;11.400;2023-06-22T13:47:38;15.40;;;5.95;;
48006;SDS011;33771;48.180;11.400;2023-06-22T13:50:04;24.15;;;6.25;;
48006;SDS011;33771;48.180;11.400;2023-06-22T13:52:30;18.30;;;5.38;;
48006;SDS011;33771;48.180;11.400;2023-06-22T13:54:56;19.17;;;5.70;;
48006;SDS011;33771;48.180;11.400;2023-06-22T13:57:21;16.13;;;5.82;;
48006;SDS011;33771;48.180;11.400;2023-06-22T13:59:47;17.25;;;5.40;;
48006;SDS011;33771;48.180;11.400;2023-06-22T14:02:12;16.15;;;5.30;;
48006;SDS011;33771;48.180;11.400;2023-06-22T14:04:38;15.98;;;5.30;;
48006;SDS011;33771;48.180;11.400;2023-06-22T14:07:04;17.15;;;5.47;;
48006;SDS011;33771;48.180;11.400;2023-06-22T14:09:30;15.77;;;5.47;;
48006;SDS011;33771;48.180;11.400;2023-06-22T14:11:55;14.38;;;5.68;;
48006;SDS011;33771;48.180;11.400;2023-06-22T14:14:21;22.88;;;5.68;;
48006;SDS011;33771;48.180;11.400;2023-06-22T14:16:47;21.85;;;5.78;;
48006;SDS011;33771;48.180;11.400;2023-06-22T14:19:14;18.00;;;6.00;;
48006;SDS011;33771;48.180;11.400;2023-06-22T14:21:41;23.77;;;5.85;;
48006;SDS011;33771;48.180;11.400;2023-06-22T14:24:07;21.15;;;6.25;;